sensor_id;sensor_type;location;lat;lon;timestamp;temperature;humidity
35299;DHT22;21415;48.054;16.646;2022-08-01T00:01:57;25.70;44.90
35299;DHT22;21415;48.054;16.646;2022-08-01T00:04:22;25.70;45.00
35299;DHT22;21415;48.054;16.646;2022-08-01T00:06:48;25.70;45.10
35299;DHT22;21415;48.054;16.646;2022-08-01T00:09:14;25.60;45.10
35299;DHT22;21415;48.054;16.646;2022-08-01T00:11:40;25.60;45.10
35299;DHT22;21415;48.054;16.646;2022-08-01T00:14:07;25.50;45.20
35299;DHT22;21415;48.054;16.646;2022-08-01T00:16:35;25.50;45.30
35299;DHT22;21415;48.054;16.646;2022-08-01T00:19:01;25.50;45.30
35299;DHT22;21415;48.054;16.646;2022-08-01T00:21:27;25.50;45.30
35299;DHT22;21415;48.054;16.646;2022-08-01T00:23:53;25.40;45.30
35299;DHT22;21415;48.054;16.646;2022-08-01T00:26:19;25.40;45.30
35299;DHT22;21415;48.054;16.646;2022-08-01T00:28:44;25.30;45.20
35299;DHT22;21415;48.054;16.646;2022-08-01T00:31:10;25.30;45.20
35299;DHT22;21415;48.054;16.646;2022-08-01T00:33:36;25.30;45.30
35299;DHT22;21415;48.054;16.646;2022-08-01T00:36:02;25.20;45.40
35299;DHT22;21415;48.054;16.646;2022-08-01T00:38:27;25.20;45.50
35299;DHT22;21415;48.054;16.646;2022-08-01T00:40:53;25.10;45.60
35299;DHT22;21415;48.054;16.646;2022-08-01T00:43:19;25.10;45.60
35299;DHT22;21415;48.054;16.646;2022-08-01T00:45:45;25.00;45.70
35299;DHT22;21415;48.054;16.646;2022-08-01T00:48:11;25.00;45.80
35299;DHT22;21415;48.054;16.646;2022-08-01T00:50:37;25.00;46.00
35299;DHT22;21415;48.054;16.646;2022-08-01T00:53:03;24.90;46.10
35299;DHT22;21415;48.054;16.646;2022-08-01T00:55:31;24.90;46.30
35299;DHT22;21415;48.054;16.646;2022-08-01T00:57:57;24.80;46.30
35299;DHT22;21415;48.054;16.646;2022-08-01T01:00:23;24.80;47.00
35299;DHT22;21415;48.054;16.646;2022-08-01T01:02:49;24.80;46.50
35299;DHT22;21415;48.054;16.646;2022-08-01T01:05:15;24.70;46.40
35299;DHT22;21415;48.054;16.646;2022-08-01T01:07:58;24.70;46.40
35299;DHT22;21415;48.054;16.646;2022-08-01T01:10:40;24.60;46.90
35299;DHT22;21415;48.054;16.646;2022-08-01T01:13:13;24.60;47.00
35299;DHT22;21415;48.054;16.646;2022-08-01T01:15:49;24.60;46.90
35299;DHT22;21415;48.054;16.646;2022-08-01T01:24:00;24.40;47.20
35299;DHT22;21415;48.054;16.646;2022-08-01T01:26:40;24.40;47.10
35299;DHT22;21415;48.054;16.646;2022-08-01T01:29:30;24.40;47.20
35299;DHT22;21415;48.054;16.646;2022-08-01T01:32:07;24.40;47.30
35299;DHT22;21415;48.054;16.646;2022-08-01T01:34:41;24.40;47.50
35299;DHT22;21415;48.054;16.646;2022-08-01T01:37:12;24.30;47.60
35299;DHT22;21415;48.054;16.646;2022-08-01T01:39:41;24.30;47.50
35299;DHT22;21415;48.054;16.646;2022-08-01T01:42:08;24.30;48.10
35299;DHT22;21415;48.054;16.646;2022-08-01T01:44:37;24.30;48.00
35299;DHT22;21415;48.054;16.646;2022-08-01T01:47:04;24.30;47.50
35299;DHT22;21415;48.054;16.646;2022-08-01T01:49:32;24.30;47.60
35299;DHT22;21415;48.054;16.646;2022-08-01T01:52:00;24.30;47.70
35299;DHT22;21415;48.054;16.646;2022-08-01T01:54:33;24.30;47.60
35299;DHT22;21415;48.054;16.646;2022-08-01T01:57:02;24.30;48.00
35299;DHT22;21415;48.054;16.646;2022-08-01T01:59:32;24.30;47.90
35299;DHT22;21415;48.054;16.646;2022-08-01T02:02:02;24.30;47.80
35299;DHT22;21415;48.054;16.646;2022-08-01T02:04:28;24.30;48.00
35299;DHT22;21415;48.054;16.646;2022-08-01T02:06:56;24.30;47.80
35299;DHT22;21415;48.054;16.646;2022-08-01T02:09:24;24.40;47.80
35299;DHT22;21415;48.054;16.646;2022-08-01T02:11:53;24.30;47.90
35299;DHT22;21415;48.054;16.646;2022-08-01T02:14:20;24.40;48.10
35299;DHT22;21415;48.054;16.646;2022-08-01T02:16:49;24.40;48.00
35299;DHT22;21415;48.054;16.646;2022-08-01T02:19:18;24.40;48.10
35299;DHT22;21415;48.054;16.646;2022-08-01T02:21:52;24.40;48.20
35299;DHT22;21415;48.054;16.646;2022-08-01T02:26:51;24.40;48.20
35299;DHT22;21415;48.054;16.646;2022-08-01T02:29:24;24.50;48.40
35299;DHT22;21415;48.054;16.646;2022-08-01T02:31:54;24.40;48.40
35299;DHT22;21415;48.054;16.646;2022-08-01T02:34:21;24.50;48.20
35299;DHT22;21415;48.054;16.646;2022-08-01T02:36:48;24.50;48.10
35299;DHT22;21415;48.054;16.646;2022-08-01T02:39:17;24.50;48.10
35299;DHT22;21415;48.054;16.646;2022-08-01T02:41:48;24.50;48.10
35299;DHT22;21415;48.054;16.646;2022-08-01T02:44:24;24.50;48.10
35299;DHT22;21415;48.054;16.646;2022-08-01T02:46:54;24.50;48.30
35299;DHT22;21415;48.054;16.646;2022-08-01T02:49:23;24.60;47.70
35299;DHT22;21415;48.054;16.646;2022-08-01T02:51:51;24.60;47.70
35299;DHT22;21415;48.054;16.646;2022-08-01T02:54:18;24.60;47.80
35299;DHT22;21415;48.054;16.646;2022-08-01T02:56:47;24.60;48.00
35299;DHT22;21415;48.054;16.646;2022-08-01T02:59:18;24.60;48.10
35299;DHT22;21415;48.054;16.646;2022-08-01T03:01:45;24.60;48.50
35299;DHT22;21415;48.054;16.646;2022-08-01T03:04:12;24.60;48.50
35299;DHT22;21415;48.054;16.646;2022-08-01T03:06:39;24.60;48.40
35299;DHT22;21415;48.054;16.646;2022-08-01T03:09:06;24.60;48.50
35299;DHT22;21415;48.054;16.646;2022-08-01T03:11:34;24.60;48.60
35299;DHT22;21415;48.054;16.646;2022-08-01T03:14:03;24.60;48.80
35299;DHT22;21415;48.054;16.646;2022-08-01T03:16:31;24.60;49.30
35299;DHT22;21415;48.054;16.646;2022-08-01T03:19:00;24.60;48.90
35299;DHT22;21415;48.054;16.646;2022-08-01T03:21:28;24.60;49.60
35299;DHT22;21415;48.054;16.646;2022-08-01T03:23:58;24.60;49.20
35299;DHT22;21415;48.054;16.646;2022-08-01T03:26:30;24.60;49.50
35299;DHT22;21415;48.054;16.646;2022-08-01T03:29:15;24.60;49.60
35299;DHT22;21415;48.054;16.646;2022-08-01T03:31:44;24.60;49.80
35299;DHT22;21415;48.054;16.646;2022-08-01T03:34:11;24.70;49.50
35299;DHT22;21415;48.054;16.646;2022-08-01T03:36:47;24.70;49.40
35299;DHT22;21415;48.054;16.646;2022-08-01T03:39:14;24.70;49.00
35299;DHT22;21415;48.054;16.646;2022-08-01T03:41:45;24.80;49.20
35299;DHT22;21415;48.054;16.646;2022-08-01T03:44:16;24.70;49.60
35299;DHT22;21415;48.054;16.646;2022-08-01T03:46:49;24.80;50.00
35299;DHT22;21415;48.054;16.646;2022-08-01T03:49:21;24.80;50.10
35299;DHT22;21415;48.054;16.646;2022-08-01T03:51:49;24.80;50.00
35299;DHT22;21415;48.054;16.646;2022-08-01T03:54:21;24.80;49.90
35299;DHT22;21415;48.054;16.646;2022-08-01T03:56:48;24.80;50.00
35299;DHT22;21415;48.054;16.646;2022-08-01T03:59:16;24.90;49.90
35299;DHT22;21415;48.054;16.646;2022-08-01T04:01:45;24.80;49.80
35299;DHT22;21415;48.054;16.646;2022-08-01T04:04:12;24.90;49.70
35299;DHT22;21415;48.054;16.646;2022-08-01T04:06:39;24.90;49.60
35299;DHT22;21415;48.054;16.646;2022-08-01T04:09:07;24.90;49.60
35299;DHT22;21415;48.054;16.646;2022-08-01T04:11:33;25.00;49.60
35299;DHT22;21415;48.054;16.646;2022-08-01T04:13:59;25.00;49.60
35299;DHT22;21415;48.054;16.646;2022-08-01T04:16:25;25.00;49.50
35299;DHT22;21415;48.054;16.646;2022-08-01T04:18:51;25.00;49.50
35299;DHT22;21415;48.054;16.646;2022-08-01T04:21:23;25.00;49.50
35299;DHT22;21415;48.054;16.646;2022-08-01T04:23:53;25.00;50.00
35299;DHT22;21415;48.054;16.646;2022-08-01T04:26:20;25.10;50.00
35299;DHT22;21415;48.054;16.646;2022-08-01T04:28:47;25.10;50.00
35299;DHT22;21415;48.054;16.646;2022-08-01T04:31:16;25.10;50.00
35299;DHT22;21415;48.054;16.646;2022-08-01T04:33:47;25.10;50.20
35299;DHT22;21415;48.054;16.646;2022-08-01T04:36:14;25.20;50.60
35299;DHT22;21415;48.054;16.646;2022-08-01T04:38:45;25.20;50.60
35299;DHT22;21415;48.054;16.646;2022-08-01T04:41:13;25.20;50.70
35299;DHT22;21415;48.054;16.646;2022-08-01T04:43:40;25.20;50.40
35299;DHT22;21415;48.054;16.646;2022-08-01T04:46:08;25.30;50.40
35299;DHT22;21415;48.054;16.646;2022-08-01T04:48:38;25.30;50.50
35299;DHT22;21415;48.054;16.646;2022-08-01T04:51:14;25.30;50.70
35299;DHT22;21415;48.054;16.646;2022-08-01T04:53:41;25.40;50.70
35299;DHT22;21415;48.054;16.646;2022-08-01T04:56:07;25.40;50.00
35299;DHT22;21415;48.054;16.646;2022-08-01T04:58:33;25.50;49.90
35299;DHT22;21415;48.054;16.646;2022-08-01T05:00:59;25.50;50.40
35299;DHT22;21415;48.054;16.646;2022-08-01T05:03:24;25.60;49.80
35299;DHT22;21415;48.054;16.646;2022-08-01T05:05:50;25.60;49.80
35299;DHT22;21415;48.054;16.646;2022-08-01T05:08:16;25.70;49.90
35299;DHT22;21415;48.054;16.646;2022-08-01T05:10:42;25.70;49.90
35299;DHT22;21415;48.054;16.646;2022-08-01T05:13:08;25.70;49.70
35299;DHT22;21415;48.054;16.646;2022-08-01T05:15:35;25.80;49.80
35299;DHT22;21415;48.054;16.646;2022-08-01T05:18:02;25.80;49.50
35299;DHT22;21415;48.054;16.646;2022-08-01T05:20:28;25.90;49.70
35299;DHT22;21415;48.054;16.646;2022-08-01T05:22:54;25.90;49.70
35299;DHT22;21415;48.054;16.646;2022-08-01T05:25:20;26.00;50.40
35299;DHT22;21415;48.054;16.646;2022-08-01T05:27:46;26.00;49.80
35299;DHT22;21415;48.054;16.646;2022-08-01T05:30:12;26.10;50.00
35299;DHT22;21415;48.054;16.646;2022-08-01T05:32:38;26.20;50.10
35299;DHT22;21415;48.054;16.646;2022-08-01T05:35:05;26.20;50.00
35299;DHT22;21415;48.054;16.646;2022-08-01T05:37:31;26.30;50.00
35299;DHT22;21415;48.054;16.646;2022-08-01T05:39:57;26.40;49.80
35299;DHT22;21415;48.054;16.646;2022-08-01T05:42:22;26.40;49.40
35299;DHT22;21415;48.054;16.646;2022-08-01T05:44:48;26.50;49.30
35299;DHT22;21415;48.054;16.646;2022-08-01T05:47:15;26.60;49.40
35299;DHT22;21415;48.054;16.646;2022-08-01T05:49:41;26.70;49.10
35299;DHT22;21415;48.054;16.646;2022-08-01T05:52:07;26.70;49.10
35299;DHT22;21415;48.054;16.646;2022-08-01T05:54:32;26.80;49.20
35299;DHT22;21415;48.054;16.646;2022-08-01T05:56:58;26.90;48.90
35299;DHT22;21415;48.054;16.646;2022-08-01T05:59:28;27.00;49.00
35299;DHT22;21415;48.054;16.646;2022-08-01T06:01:54;27.00;48.80
35299;DHT22;21415;48.054;16.646;2022-08-01T06:04:20;27.10;48.70
35299;DHT22;21415;48.054;16.646;2022-08-01T06:06:46;27.10;48.60
35299;DHT22;21415;48.054;16.646;2022-08-01T06:09:11;27.20;48.80
35299;DHT22;21415;48.054;16.646;2022-08-01T06:11:37;27.30;48.90
35299;DHT22;21415;48.054;16.646;2022-08-01T06:14:03;27.30;48.80
35299;DHT22;21415;48.054;16.646;2022-08-01T06:16:29;27.40;48.70
35299;DHT22;21415;48.054;16.646;2022-08-01T06:18:55;27.40;48.40
35299;DHT22;21415;48.054;16.646;2022-08-01T06:21:20;27.50;48.40
35299;DHT22;21415;48.054;16.646;2022-08-01T06:23:46;27.60;48.20
35299;DHT22;21415;48.054;16.646;2022-08-01T06:26:12;27.60;48.00
35299;DHT22;21415;48.054;16.646;2022-08-01T06:28:38;27.70;48.00
35299;DHT22;21415;48.054;16.646;2022-08-01T06:31:04;27.90;48.00
35299;DHT22;21415;48.054;16.646;2022-08-01T06:33:30;27.90;47.90
35299;DHT22;21415;48.054;16.646;2022-08-01T06:35:55;28.00;47.80
35299;DHT22;21415;48.054;16.646;2022-08-01T06:38:21;28.10;47.70
35299;DHT22;21415;48.054;16.646;2022-08-01T06:40:47;28.20;47.70
35299;DHT22;21415;48.054;16.646;2022-08-01T06:43:13;28.40;47.80
35299;DHT22;21415;48.054;16.646;2022-08-01T06:45:40;28.50;47.80
35299;DHT22;21415;48.054;16.646;2022-08-01T06:48:05;28.60;48.00
35299;DHT22;21415;48.054;16.646;2022-08-01T06:50:31;28.80;48.10
35299;DHT22;21415;48.054;16.646;2022-08-01T06:52:57;28.90;47.90
35299;DHT22;21415;48.054;16.646;2022-08-01T06:55:23;29.10;47.60
35299;DHT22;21415;48.054;16.646;2022-08-01T06:57:50;29.20;47.50
35299;DHT22;21415;48.054;16.646;2022-08-01T07:00:18;29.40;47.10
35299;DHT22;21415;48.054;16.646;2022-08-01T07:02:48;29.50;46.50
35299;DHT22;21415;48.054;16.646;2022-08-01T07:05:14;29.60;46.20
35299;DHT22;21415;48.054;16.646;2022-08-01T07:07:40;29.60;45.90
35299;DHT22;21415;48.054;16.646;2022-08-01T07:10:06;29.70;46.20
35299;DHT22;21415;48.054;16.646;2022-08-01T07:12:34;29.90;45.70
35299;DHT22;21415;48.054;16.646;2022-08-01T07:15:03;29.90;44.80
35299;DHT22;21415;48.054;16.646;2022-08-01T07:17:29;29.90;44.50
35299;DHT22;21415;48.054;16.646;2022-08-01T07:19:55;30.00;44.20
35299;DHT22;21415;48.054;16.646;2022-08-01T07:22:21;30.10;44.60
35299;DHT22;21415;48.054;16.646;2022-08-01T07:24:46;30.10;44.40
35299;DHT22;21415;48.054;16.646;2022-08-01T07:27:12;30.20;44.70
35299;DHT22;21415;48.054;16.646;2022-08-01T07:29:38;30.30;44.40
35299;DHT22;21415;48.054;16.646;2022-08-01T07:32:04;30.40;44.60
35299;DHT22;21415;48.054;16.646;2022-08-01T07:34:30;30.50;44.50
35299;DHT22;21415;48.054;16.646;2022-08-01T07:36:55;30.50;44.10
35299;DHT22;21415;48.054;16.646;2022-08-01T07:39:22;30.60;44.50
35299;DHT22;21415;48.054;16.646;2022-08-01T07:41:47;30.70;44.20
35299;DHT22;21415;48.054;16.646;2022-08-01T07:44:13;30.80;43.90
35299;DHT22;21415;48.054;16.646;2022-08-01T07:46:39;31.00;44.20
35299;DHT22;21415;48.054;16.646;2022-08-01T07:49:05;31.00;43.70
35299;DHT22;21415;48.054;16.646;2022-08-01T07:51:31;31.10;44.00
35299;DHT22;21415;48.054;16.646;2022-08-01T07:53:56;31.20;43.70
35299;DHT22;21415;48.054;16.646;2022-08-01T07:56:22;31.20;44.20
35299;DHT22;21415;48.054;16.646;2022-08-01T07:58:50;31.30;43.60
35299;DHT22;21415;48.054;16.646;2022-08-01T08:01:15;31.50;43.00
35299;DHT22;21415;48.054;16.646;2022-08-01T08:03:41;31.50;42.50
35299;DHT22;21415;48.054;16.646;2022-08-01T08:06:07;31.60;42.60
35299;DHT22;21415;48.054;16.646;2022-08-01T08:08:33;31.70;41.70
35299;DHT22;21415;48.054;16.646;2022-08-01T08:11:00;31.80;41.30
35299;DHT22;21415;48.054;16.646;2022-08-01T08:13:26;31.80;40.50
35299;DHT22;21415;48.054;16.646;2022-08-01T08:15:52;31.80;40.40
35299;DHT22;21415;48.054;16.646;2022-08-01T08:18:18;31.90;40.30
35299;DHT22;21415;48.054;16.646;2022-08-01T08:20:44;31.90;40.20
35299;DHT22;21415;48.054;16.646;2022-08-01T08:23:10;31.90;40.20
35299;DHT22;21415;48.054;16.646;2022-08-01T08:25:54;31.90;40.10
35299;DHT22;21415;48.054;16.646;2022-08-01T08:28:20;31.90;39.80
35299;DHT22;21415;48.054;16.646;2022-08-01T08:30:46;31.90;39.20
35299;DHT22;21415;48.054;16.646;2022-08-01T08:33:12;31.80;38.90
35299;DHT22;21415;48.054;16.646;2022-08-01T08:35:39;31.80;39.60
35299;DHT22;21415;48.054;16.646;2022-08-01T08:38:06;31.80;38.80
35299;DHT22;21415;48.054;16.646;2022-08-01T08:40:35;31.70;38.70
35299;DHT22;21415;48.054;16.646;2022-08-01T08:43:04;31.60;38.30
35299;DHT22;21415;48.054;16.646;2022-08-01T08:45:30;31.50;38.60
35299;DHT22;21415;48.054;16.646;2022-08-01T08:47:56;31.50;38.60
35299;DHT22;21415;48.054;16.646;2022-08-01T08:50:23;31.40;38.50
35299;DHT22;21415;48.054;16.646;2022-08-01T08:52:51;31.30;38.30
35299;DHT22;21415;48.054;16.646;2022-08-01T08:55:18;31.30;38.40
35299;DHT22;21415;48.054;16.646;2022-08-01T08:57:44;31.20;38.50
35299;DHT22;21415;48.054;16.646;2022-08-01T09:00:12;31.20;38.50
35299;DHT22;21415;48.054;16.646;2022-08-01T09:02:43;31.10;38.50
35299;DHT22;21415;48.054;16.646;2022-08-01T09:05:10;31.10;38.40
35299;DHT22;21415;48.054;16.646;2022-08-01T09:07:36;31.10;38.70
35299;DHT22;21415;48.054;16.646;2022-08-01T09:10:02;31.00;38.80
35299;DHT22;21415;48.054;16.646;2022-08-01T09:12:28;31.00;39.40
35299;DHT22;21415;48.054;16.646;2022-08-01T09:14:54;31.10;39.30
35299;DHT22;21415;48.054;16.646;2022-08-01T09:17:20;31.10;39.60
35299;DHT22;21415;48.054;16.646;2022-08-01T09:19:48;31.20;39.10
35299;DHT22;21415;48.054;16.646;2022-08-01T09:22:17;31.20;38.80
35299;DHT22;21415;48.054;16.646;2022-08-01T09:25:05;31.20;38.90
35299;DHT22;21415;48.054;16.646;2022-08-01T09:27:32;31.20;38.70
35299;DHT22;21415;48.054;16.646;2022-08-01T09:30:14;31.30;39.10
35299;DHT22;21415;48.054;16.646;2022-08-01T09:32:57;31.30;38.80
35299;DHT22;21415;48.054;16.646;2022-08-01T09:35:33;31.30;38.60
35299;DHT22;21415;48.054;16.646;2022-08-01T09:38:23;31.40;38.70
35299;DHT22;21415;48.054;16.646;2022-08-01T09:40:54;31.50;38.70
35299;DHT22;21415;48.054;16.646;2022-08-01T09:43:22;31.50;38.70
35299;DHT22;21415;48.054;16.646;2022-08-01T09:45:49;31.60;38.60
35299;DHT22;21415;48.054;16.646;2022-08-01T09:48:15;31.70;39.00
35299;DHT22;21415;48.054;16.646;2022-08-01T09:50:49;31.70;38.70
35299;DHT22;21415;48.054;16.646;2022-08-01T09:53:16;31.80;38.30
35299;DHT22;21415;48.054;16.646;2022-08-01T09:55:43;31.80;38.40
35299;DHT22;21415;48.054;16.646;2022-08-01T09:58:10;31.90;38.30
35299;DHT22;21415;48.054;16.646;2022-08-01T10:00:38;31.90;38.50
35299;DHT22;21415;48.054;16.646;2022-08-01T10:03:21;32.00;38.70
35299;DHT22;21415;48.054;16.646;2022-08-01T10:05:47;32.00;38.60
35299;DHT22;21415;48.054;16.646;2022-08-01T10:08:13;32.10;39.10
35299;DHT22;21415;48.054;16.646;2022-08-01T10:10:39;32.30;39.30
35299;DHT22;21415;48.054;16.646;2022-08-01T10:13:06;32.40;38.80
35299;DHT22;21415;48.054;16.646;2022-08-01T10:15:33;32.50;38.70
35299;DHT22;21415;48.054;16.646;2022-08-01T10:18:02;32.70;38.40
35299;DHT22;21415;48.054;16.646;2022-08-01T10:20:31;32.70;38.00
35299;DHT22;21415;48.054;16.646;2022-08-01T10:23:07;32.80;37.80
35299;DHT22;21415;48.054;16.646;2022-08-01T10:25:40;32.90;37.30
35299;DHT22;21415;48.054;16.646;2022-08-01T10:28:14;33.00;37.60
35299;DHT22;21415;48.054;16.646;2022-08-01T10:30:42;33.00;37.60
35299;DHT22;21415;48.054;16.646;2022-08-01T10:33:09;33.10;37.60
35299;DHT22;21415;48.054;16.646;2022-08-01T10:35:37;33.10;37.30
35299;DHT22;21415;48.054;16.646;2022-08-01T10:38:04;33.20;37.70
35299;DHT22;21415;48.054;16.646;2022-08-01T10:40:30;33.20;37.50
35299;DHT22;21415;48.054;16.646;2022-08-01T10:42:57;33.20;37.40
35299;DHT22;21415;48.054;16.646;2022-08-01T10:45:23;33.20;37.20
35299;DHT22;21415;48.054;16.646;2022-08-01T10:47:53;33.20;36.90
35299;DHT22;21415;48.054;16.646;2022-08-01T10:50:29;33.20;37.00
35299;DHT22;21415;48.054;16.646;2022-08-01T10:53:19;33.20;36.70
35299;DHT22;21415;48.054;16.646;2022-08-01T10:56:00;33.20;36.90
35299;DHT22;21415;48.054;16.646;2022-08-01T10:58:31;33.20;36.80
35299;DHT22;21415;48.054;16.646;2022-08-01T11:01:23;33.20;36.70
35299;DHT22;21415;48.054;16.646;2022-08-01T11:04:01;33.20;36.70
35299;DHT22;21415;48.054;16.646;2022-08-01T11:09:23;33.20;36.60
35299;DHT22;21415;48.054;16.646;2022-08-01T11:12:07;33.10;36.00
35299;DHT22;21415;48.054;16.646;2022-08-01T11:15:16;33.10;36.40
35299;DHT22;21415;48.054;16.646;2022-08-01T11:17:46;33.10;36.70
35299;DHT22;21415;48.054;16.646;2022-08-01T11:20:18;33.10;36.50
35299;DHT22;21415;48.054;16.646;2022-08-01T11:30:51;33.10;36.30
35299;DHT22;21415;48.054;16.646;2022-08-01T11:33:47;33.00;36.10
35299;DHT22;21415;48.054;16.646;2022-08-01T11:38:45;33.00;35.50
35299;DHT22;21415;48.054;16.646;2022-08-01T11:41:23;33.00;35.70
35299;DHT22;21415;48.054;16.646;2022-08-01T11:44:03;33.00;35.10
35299;DHT22;21415;48.054;16.646;2022-08-01T11:52:08;33.10;35.10
35299;DHT22;21415;48.054;16.646;2022-08-01T11:54:57;33.20;35.00
35299;DHT22;21415;48.054;16.646;2022-08-01T11:57:29;33.20;34.50
35299;DHT22;21415;48.054;16.646;2022-08-01T12:00:13;33.20;34.50
35299;DHT22;21415;48.054;16.646;2022-08-01T12:02:39;33.30;34.60
35299;DHT22;21415;48.054;16.646;2022-08-01T12:05:09;33.30;34.40
35299;DHT22;21415;48.054;16.646;2022-08-01T12:07:36;33.40;34.40
35299;DHT22;21415;48.054;16.646;2022-08-01T12:10:15;33.40;34.30
35299;DHT22;21415;48.054;16.646;2022-08-01T12:12:46;33.40;34.20
35299;DHT22;21415;48.054;16.646;2022-08-01T12:15:14;33.50;34.40
35299;DHT22;21415;48.054;16.646;2022-08-01T12:17:42;33.50;34.50
35299;DHT22;21415;48.054;16.646;2022-08-01T12:20:12;33.50;34.30
35299;DHT22;21415;48.054;16.646;2022-08-01T12:22:38;33.50;34.10
35299;DHT22;21415;48.054;16.646;2022-08-01T12:25:09;33.50;34.20
35299;DHT22;21415;48.054;16.646;2022-08-01T12:27:35;33.50;34.30
35299;DHT22;21415;48.054;16.646;2022-08-01T12:30:03;33.50;34.30
35299;DHT22;21415;48.054;16.646;2022-08-01T12:32:31;33.40;34.30
35299;DHT22;21415;48.054;16.646;2022-08-01T12:35:07;33.40;34.70
35299;DHT22;21415;48.054;16.646;2022-08-01T12:37:36;33.40;34.10
35299;DHT22;21415;48.054;16.646;2022-08-01T12:40:13;33.40;34.90
35299;DHT22;21415;48.054;16.646;2022-08-01T12:42:40;33.30;34.10
35299;DHT22;21415;48.054;16.646;2022-08-01T12:45:09;33.30;34.50
35299;DHT22;21415;48.054;16.646;2022-08-01T12:47:36;33.20;34.30
35299;DHT22;21415;48.054;16.646;2022-08-01T12:50:10;33.20;34.60
35299;DHT22;21415;48.054;16.646;2022-08-01T12:52:37;33.20;34.40
35299;DHT22;21415;48.054;16.646;2022-08-01T12:55:12;33.10;34.40
35299;DHT22;21415;48.054;16.646;2022-08-01T12:57:41;33.10;34.50
35299;DHT22;21415;48.054;16.646;2022-08-01T13:00:19;33.00;34.80
35299;DHT22;21415;48.054;16.646;2022-08-01T13:02:46;33.00;34.80
35299;DHT22;21415;48.054;16.646;2022-08-01T13:05:13;32.90;35.00
35299;DHT22;21415;48.054;16.646;2022-08-01T13:07:49;32.90;37.00
35299;DHT22;21415;48.054;16.646;2022-08-01T13:10:26;32.80;38.70
35299;DHT22;21415;48.054;16.646;2022-08-01T13:12:54;32.80;39.50
35299;DHT22;21415;48.054;16.646;2022-08-01T13:15:21;32.70;39.10
35299;DHT22;21415;48.054;16.646;2022-08-01T13:17:48;32.60;38.50
35299;DHT22;21415;48.054;16.646;2022-08-01T13:20:32;32.50;38.60
35299;DHT22;21415;48.054;16.646;2022-08-01T13:23:13;32.30;40.00
35299;DHT22;21415;48.054;16.646;2022-08-01T13:25:49;32.20;40.80
35299;DHT22;21415;48.054;16.646;2022-08-01T13:28:23;32.10;42.50
35299;DHT22;21415;48.054;16.646;2022-08-01T13:31:00;32.00;43.00
35299;DHT22;21415;48.054;16.646;2022-08-01T13:33:38;32.00;43.60
35299;DHT22;21415;48.054;16.646;2022-08-01T13:36:06;31.90;44.10
35299;DHT22;21415;48.054;16.646;2022-08-01T13:38:32;31.90;44.10
35299;DHT22;21415;48.054;16.646;2022-08-01T13:41:16;31.90;44.20
35299;DHT22;21415;48.054;16.646;2022-08-01T13:43:42;31.80;43.40
35299;DHT22;21415;48.054;16.646;2022-08-01T13:46:08;31.80;42.90
35299;DHT22;21415;48.054;16.646;2022-08-01T13:48:34;31.80;42.40
35299;DHT22;21415;48.054;16.646;2022-08-01T13:51:00;31.80;42.50
35299;DHT22;21415;48.054;16.646;2022-08-01T13:53:26;31.80;42.00
35299;DHT22;21415;48.054;16.646;2022-08-01T13:55:52;31.80;42.20
35299;DHT22;21415;48.054;16.646;2022-08-01T13:58:18;31.80;42.70
35299;DHT22;21415;48.054;16.646;2022-08-01T14:00:43;31.80;42.40
35299;DHT22;21415;48.054;16.646;2022-08-01T14:03:09;31.80;43.00
35299;DHT22;21415;48.054;16.646;2022-08-01T14:05:36;31.80;42.60
35299;DHT22;21415;48.054;16.646;2022-08-01T14:08:02;31.90;42.50
35299;DHT22;21415;48.054;16.646;2022-08-01T14:10:28;31.90;42.60
35299;DHT22;21415;48.054;16.646;2022-08-01T14:12:55;31.90;42.30
35299;DHT22;21415;48.054;16.646;2022-08-01T14:15:23;32.00;42.00
35299;DHT22;21415;48.054;16.646;2022-08-01T14:17:49;32.00;42.80
35299;DHT22;21415;48.054;16.646;2022-08-01T14:20:15;32.10;42.70
35299;DHT22;21415;48.054;16.646;2022-08-01T14:22:45;32.10;42.80
35299;DHT22;21415;48.054;16.646;2022-08-01T14:25:11;32.10;42.60
35299;DHT22;21415;48.054;16.646;2022-08-01T14:27:37;32.10;42.00
35299;DHT22;21415;48.054;16.646;2022-08-01T14:30:05;32.20;41.20
35299;DHT22;21415;48.054;16.646;2022-08-01T14:32:31;32.20;41.00
35299;DHT22;21415;48.054;16.646;2022-08-01T14:34:59;32.20;40.30
35299;DHT22;21415;48.054;16.646;2022-08-01T14:37:25;32.20;39.80
35299;DHT22;21415;48.054;16.646;2022-08-01T14:39:51;32.30;39.70
35299;DHT22;21415;48.054;16.646;2022-08-01T14:42:16;32.30;39.10
35299;DHT22;21415;48.054;16.646;2022-08-01T14:44:42;32.40;38.60
35299;DHT22;21415;48.054;16.646;2022-08-01T14:47:08;32.40;38.20
35299;DHT22;21415;48.054;16.646;2022-08-01T14:49:34;32.40;38.30
35299;DHT22;21415;48.054;16.646;2022-08-01T14:51:59;32.50;38.30
35299;DHT22;21415;48.054;16.646;2022-08-01T14:54:25;32.50;38.10
35299;DHT22;21415;48.054;16.646;2022-08-01T14:56:51;32.50;38.00
35299;DHT22;21415;48.054;16.646;2022-08-01T14:59:19;32.60;37.90
35299;DHT22;21415;48.054;16.646;2022-08-01T15:01:44;32.60;38.20
35299;DHT22;21415;48.054;16.646;2022-08-01T15:04:10;32.70;38.00
35299;DHT22;21415;48.054;16.646;2022-08-01T15:06:36;32.70;37.80
35299;DHT22;21415;48.054;16.646;2022-08-01T15:09:02;32.70;37.40
35299;DHT22;21415;48.054;16.646;2022-08-01T15:11:28;32.80;37.60
35299;DHT22;21415;48.054;16.646;2022-08-01T15:13:54;32.80;37.20
35299;DHT22;21415;48.054;16.646;2022-08-01T15:16:38;32.80;37.10
35299;DHT22;21415;48.054;16.646;2022-08-01T15:19:04;32.80;37.10
35299;DHT22;21415;48.054;16.646;2022-08-01T15:21:30;32.80;37.10
35299;DHT22;21415;48.054;16.646;2022-08-01T15:23:56;32.90;36.90
35299;DHT22;21415;48.054;16.646;2022-08-01T15:26:22;32.80;36.50
35299;DHT22;21415;48.054;16.646;2022-08-01T15:28:47;32.90;36.80
35299;DHT22;21415;48.054;16.646;2022-08-01T15:31:13;32.80;36.60
35299;DHT22;21415;48.054;16.646;2022-08-01T15:33:39;32.90;36.30
35299;DHT22;21415;48.054;16.646;2022-08-01T15:36:05;32.90;36.40
35299;DHT22;21415;48.054;16.646;2022-08-01T15:38:31;32.90;36.50
35299;DHT22;21415;48.054;16.646;2022-08-01T15:40:57;32.90;36.40
35299;DHT22;21415;48.054;16.646;2022-08-01T15:43:22;32.90;36.30
35299;DHT22;21415;48.054;16.646;2022-08-01T15:45:48;32.90;36.60
35299;DHT22;21415;48.054;16.646;2022-08-01T15:48:16;32.90;36.30
35299;DHT22;21415;48.054;16.646;2022-08-01T15:50:41;32.90;36.50
35299;DHT22;21415;48.054;16.646;2022-08-01T15:53:07;32.90;36.30